Lawrenceville, Virginia
Current Conditions -  °F | °C
As of 8:35 PM on Tuesday 27 Jan 2015 (Local Time) from KLVL Reporting Station
Overcast Overcast  
Wind Chill: 32°   Ceiling: 9500
Heat Index: 32°   Visibility: 10mi
Dew Point: 29°   Wind: 0mph
Humidity: 87%   Direction: NA
Pressure: 29.9"   Gusts: NA
Location:  36.76°N, 77.85°W
Report Text: KLVL 280135Z AUTO 00000KT 10SM SCT055 OVC095 00/M02 A2990 RMK AO1 T00001019
Loading
Personal Weather Stations






























Interactive Weather Map New forecast layout! Learn more

10-Day Weather Forecast

Advertisements
Track Severe Weather on mobile